Time;durP1;ratioP1;P1;durP2;ratioP2;P2;SDS_P1;SDS_P2;PMS_P1;PMS_P2;Temp;Humidity;BMP_temperature;BMP_pressure;BME280_temperature;BME280_humidity;BME280_pressure;Samples;Min_cycle;Max_cycle;Signal;HPM_P1;HPM_P2
2022/07/26 00:00:13;;;;;;;10.23;4.07;;;18.10;99.90;;;;;;5097319;28;20072;-70
2022/07/26 00:02:39;;;;;;;9.35;4.18;;;18.20;99.90;;;;;;5097299;28;20036;-69
2022/07/26 00:05:06;;;;;;;10.95;4.15;;;18.10;99.90;;;;;;5097342;28;20051;-72
2022/07/26 00:07:32;;;;;;;8.75;3.70;;;18.10;99.90;;;;;;5096305;28;20040;-70
2022/07/26 00:09:57;;;;;;;11.35;3.95;;;18.10;99.90;;;;;;5097318;28;20048;-72
2022/07/26 00:12:23;;;;;;;12.32;4.30;;;18.10;99.90;;;;;;5097175;28;20498;-71
2022/07/26 00:14:49;;;;;;;20.70;5.38;;;17.90;99.90;;;;;;5097140;28;20086;-69
2022/07/26 00:17:15;;;;;;;7.22;3.28;;;18.00;99.90;;;;;;5097353;28;20102;-70
2022/07/26 00:19:41;;;;;;;11.23;4.53;;;17.90;99.90;;;;;;5097123;28;20068;-70
2022/07/26 00:24:50;;;;;;;6.93;3.58;;;17.90;99.90;;;;;;5096729;28;20370;-69
2022/07/26 00:27:16;;;;;;;7.63;3.92;;;17.90;99.90;;;;;;5096979;28;20044;-70
2022/07/26 00:29:42;;;;;;;10.40;4.43;;;17.90;99.90;;;;;;5096715;28;20048;-71
2022/07/26 00:32:07;;;;;;;13.98;4.75;;;17.90;99.90;;;;;;5079162;28;20448;-74
2022/07/26 00:34:33;;;;;;;11.60;5.57;;;17.90;99.90;;;;;;5079005;28;20048;-71
2022/07/26 00:36:58;;;;;;;10.45;3.78;;;17.90;99.90;;;;;;5096267;28;20044;-69
2022/07/26 00:39:24;;;;;;;8.60;4.18;;;17.90;99.90;;;;;;5078904;28;20128;-72
2022/07/26 00:41:49;;;;;;;9.77;4.00;;;17.90;99.90;;;;;;5096678;28;20488;-70
2022/07/26 00:44:16;;;;;;;10.82;3.60;;;17.90;99.90;;;;;;5096737;28;20342;-72
2022/07/26 00:46:44;;;;;;;14.77;4.10;;;17.90;99.90;;;;;;5096597;28;20056;-72
2022/07/26 00:49:10;;;;;;;9.57;3.85;;;17.90;99.90;;;;;;5096381;28;20044;-70
2022/07/26 00:51:36;;;;;;;12.57;4.53;;;17.90;99.90;;;;;;5096224;28;20083;-71
2022/07/26 00:54:03;;;;;;;7.50;3.75;;;18.00;99.90;;;;;;5078462;28;20055;-70
2022/07/26 00:56:30;;;;;;;6.30;3.38;;;17.90;99.90;;;;;;5095983;28;20035;-71
2022/07/26 00:58:56;;;;;;;9.02;3.92;;;17.90;99.90;;;;;;5078319;28;20048;-72
2022/07/26 01:01:21;;;;;;;10.20;3.10;;;18.00;99.90;;;;;;5096267;28;20047;-71
2022/07/26 01:03:51;;;;;;;9.55;4.30;;;18.00;99.90;;;;;;5096080;28;20324;-72
2022/07/26 01:06:17;;;;;;;13.73;3.88;;;17.90;99.90;;;;;;5078512;28;20048;-72
2022/07/26 01:08:43;;;;;;;8.57;3.67;;;17.90;99.90;;;;;;5096006;28;20059;-71
2022/07/26 01:11:08;;;;;;;13.25;4.43;;;17.90;99.90;;;;;;5096107;28;20059;-73
2022/07/26 01:13:34;;;;;;;9.07;3.92;;;17.90;99.90;;;;;;5096120;28;20051;-72
2022/07/26 01:16:00;;;;;;;13.00;4.50;;;17.80;99.90;;;;;;5096150;28;20374;-71
2022/07/26 01:18:25;;;;;;;7.97;3.65;;;17.80;99.90;;;;;;5095813;28;20048;-72
2022/07/26 01:20:52;;;;;;;11.65;4.10;;;17.80;99.90;;;;;;5095697;28;20127;-70
2022/07/26 01:23:18;;;;;;;9.82;4.03;;;17.80;99.90;;;;;;5078030;28;20048;-68
2022/07/26 01:25:44;;;;;;;12.63;4.40;;;17.90;99.90;;;;;;5095847;28;20058;-72
2022/07/26 01:28:09;;;;;;;6.35;4.10;;;17.90;99.90;;;;;;5095793;28;20088;-72
2022/07/26 01:30:35;;;;;;;12.23;4.97;;;17.90;99.90;;;;;;5095937;28;20087;-71
2022/07/26 01:33:00;;;;;;;9.52;3.38;;;17.90;99.90;;;;;;5095775;28;20097;-69
2022/07/26 01:35:26;;;;;;;8.60;3.08;;;17.70;99.90;;;;;;5095386;28;20051;-71
2022/07/26 01:37:52;;;;;;;8.55;3.20;;;17.70;99.90;;;;;;5095595;28;20040;-70
2022/07/26 01:40:17;;;;;;;10.30;4.22;;;17.60;99.90;;;;;;5095613;28;20458;-72
2022/07/26 01:42:43;;;;;;;11.93;4.60;;;17.70;99.90;;;;;;5095544;28;20052;-69
2022/07/26 01:45:10;;;;;;;14.32;4.85;;;17.60;99.90;;;;;;5095542;28;20047;-70
2022/07/26 01:47:36;;;;;;;11.77;3.90;;;17.70;99.90;;;;;;5095440;28;20043;-70
2022/07/26 01:50:04;;;;;;;13.38;5.47;;;17.60;99.90;;;;;;5077693;28;20044;-72
2022/07/26 01:52:29;;;;;;;11.30;3.40;;;17.60;99.90;;;;;;5095270;28;20032;-71
2022/07/26 01:54:55;;;;;;;6.97;3.13;;;17.50;99.90;;;;;;5095392;28;20044;-72
2022/07/26 01:57:20;;;;;;;10.07;3.33;;;17.50;99.90;;;;;;5078006;28;20059;-71
2022/07/26 01:59:46;;;;;;;14.40;3.78;;;17.40;99.90;;;;;;5095378;28;20044;-72
2022/07/26 02:02:11;;;;;;;9.48;3.20;;;17.50;99.90;;;;;;5095320;28;20044;-73
2022/07/26 02:07:21;;;;;;;13.48;3.35;;;17.40;99.90;;;;;;5095232;28;20127;-70
2022/07/26 02:09:47;;;;;;;5.65;2.78;;;17.40;99.90;;;;;;5095096;28;20075;-73
2022/07/26 02:12:12;;;;;;;11.18;3.10;;;17.40;99.90;;;;;;5077582;28;20515;-72
2022/07/26 02:14:38;;;;;;;13.32;2.97;;;17.40;99.90;;;;;;5095146;28;20075;-70
2022/07/26 02:17:04;;;;;;;9.23;2.35;;;17.40;99.90;;;;;;5094943;28;20064;-71
2022/07/26 02:19:30;;;;;;;14.40;2.75;;;17.40;99.90;;;;;;5095059;28;20036;-71
2022/07/26 02:21:56;;;;;;;9.40;2.47;;;17.40;99.90;;;;;;5095036;28;20036;-70
2022/07/26 02:24:22;;;;;;;8.35;2.88;;;17.40;99.90;;;;;;5095342;28;20059;-69
2022/07/26 02:26:48;;;;;;;8.57;2.08;;;17.30;99.90;;;;;;5095197;28;20044;-70
2022/07/26 02:29:13;;;;;;;10.75;2.58;;;17.40;99.90;;;;;;5094553;28;20127;-72
2022/07/26 02:31:39;;;;;;;7.40;2.03;;;17.30;99.90;;;;;;5097406;28;20412;-71
2022/07/26 02:34:05;;;;;;;11.38;1.98;;;17.30;99.90;;;;;;5099027;28;20109;-70
2022/07/26 02:36:30;;;;;;;8.85;2.00;;;17.20;99.90;;;;;;5099130;28;20050;-71
2022/07/26 02:38:56;;;;;;;6.18;2.10;;;17.20;99.90;;;;;;5098895;28;20126;-73
2022/07/26 02:41:21;;;;;;;6.50;1.98;;;17.20;99.90;;;;;;5099061;28;20192;-69
2022/07/26 02:43:47;;;;;;;8.90;2.28;;;17.20;99.90;;;;;;5098837;28;20067;-72
2022/07/26 02:46:13;;;;;;;8.50;2.38;;;17.20;99.90;;;;;;5098755;28;20406;-72
2022/07/26 02:48:38;;;;;;;7.95;2.20;;;17.20;99.90;;;;;;5081212;28;20060;-72
2022/07/26 02:51:04;;;;;;;9.07;2.22;;;17.20;99.90;;;;;;5098691;28;20087;-72
2022/07/26 02:53:29;;;;;;;9.07;2.30;;;17.20;99.90;;;;;;5098576;28;20127;-70
2022/07/26 02:55:55;;;;;;;5.47;1.58;;;17.20;99.90;;;;;;5098771;28;20113;-70
2022/07/26 02:58:21;;;;;;;7.78;1.50;;;17.20;99.90;;;;;;5098630;28;20477;-70
2022/07/26 03:00:47;;;;;;;8.18;1.60;;;17.20;99.90;;;;;;5098680;28;20071;-70
2022/07/26 03:03:13;;;;;;;8.00;1.73;;;17.20;99.90;;;;;;5098723;28;20438;-70
2022/07/26 03:05:39;;;;;;;10.95;1.73;;;17.20;99.90;;;;;;5098571;28;20446;-72
2022/07/26 03:08:06;;;;;;;5.85;2.03;;;17.10;99.90;;;;;;5098368;28;20051;-73
2022/07/26 03:10:32;;;;;;;8.77;1.80;;;17.20;99.90;;;;;;5098352;28;20048;-71
2022/07/26 03:12:58;;;;;;;6.65;1.45;;;17.20;99.90;;;;;;5098298;28;20445;-71
2022/07/26 03:15:24;;;;;;;7.60;1.73;;;17.20;99.90;;;;;;5098411;28;20048;-70
2022/07/26 03:17:49;;;;;;;8.65;2.40;;;17.10;99.90;;;;;;5080508;28;20190;-73
2022/07/26 03:20:15;;;;;;;9.27;1.60;;;17.00;99.90;;;;;;5098354;28;20040;-70
2022/07/26 03:22:41;;;;;;;11.95;2.55;;;17.10;99.90;;;;;;5098299;28;20051;-72
2022/07/26 03:25:07;;;;;;;5.53;1.63;;;17.10;99.90;;;;;;5080377;28;20435;-73
2022/07/26 03:27:33;;;;;;;6.75;1.58;;;17.10;99.90;;;;;;5101655;28;20051;-70
2022/07/26 03:29:59;;;;;;;9.23;2.10;;;17.00;99.90;;;;;;5107991;28;20091;-69
2022/07/26 03:32:24;;;;;;;7.65;1.80;;;17.10;99.90;;;;;;5090969;28;20438;-68
2022/07/26 03:34:50;;;;;;;7.57;1.75;;;17.00;99.90;;;;;;5109089;28;20064;-69
2022/07/26 03:37:16;;;;;;;6.18;2.05;;;17.10;99.90;;;;;;5091363;28;20469;-68
2022/07/26 03:39:41;;;;;;;6.47;1.55;;;17.10;99.90;;;;;;5091668;28;20052;-68
2022/07/26 03:42:07;;;;;;;12.15;3.05;;;17.00;99.90;;;;;;5107592;28;20052;-69
2022/07/26 03:44:33;;;;;;;8.90;2.08;;;17.00;99.90;;;;;;5106468;28;20105;-71
2022/07/26 03:46:58;;;;;;;9.23;1.95;;;16.90;99.90;;;;;;5097688;28;20110;-70
2022/07/26 03:49:24;;;;;;;9.40;2.47;;;16.90;99.90;;;;;;5097455;28;20047;-72
2022/07/26 03:51:50;;;;;;;3.63;1.42;;;16.90;99.90;;;;;;5097433;28;20044;-72
2022/07/26 03:54:15;;;;;;;4.47;1.70;;;16.90;99.90;;;;;;5045237;28;20052;-71
2022/07/26 03:56:41;;;;;;;7.88;1.90;;;16.80;99.90;;;;;;5097662;28;20044;-72
2022/07/26 03:59:09;;;;;;;7.63;1.15;;;16.70;99.90;;;;;;5097416;28;20051;-70
2022/07/26 04:01:40;;;;;;;6.80;1.38;;;16.80;99.90;;;;;;5097267;28;20066;-69
2022/07/26 04:04:13;;;;;;;8.98;1.85;;;16.70;99.90;;;;;;5097416;28;20040;-71
2022/07/26 04:06:39;;;;;;;4.25;1.52;;;16.80;99.90;;;;;;5097353;28;20092;-71
2022/07/26 04:09:06;;;;;;;4.72;2.08;;;16.80;99.90;;;;;;5097041;28;20048;-70
2022/07/26 04:11:32;;;;;;;8.65;2.58;;;16.80;99.90;;;;;;5097061;28;20040;-70
2022/07/26 04:13:58;;;;;;;6.63;1.95;;;16.80;99.90;;;;;;5096979;28;20446;-72
2022/07/26 04:16:24;;;;;;;6.80;1.42;;;16.90;99.90;;;;;;5097095;28;20043;-72
2022/07/26 04:18:50;;;;;;;4.35;1.40;;;16.80;99.90;;;;;;5097098;28;20135;-72
2022/07/26 04:21:16;;;;;;;12.98;2.13;;;16.80;99.90;;;;;;5097009;28;20044;-72
2022/07/26 04:23:43;;;;;;;12.90;2.80;;;16.80;99.90;;;;;;5097094;28;20054;-69
2022/07/26 04:26:08;;;;;;;6.10;1.83;;;16.80;99.90;;;;;;5096912;28;20040;-68
2022/07/26 04:28:34;;;;;;;8.73;2.00;;;16.70;99.90;;;;;;5096865;28;20054;-71
2022/07/26 04:30:59;;;;;;;4.57;1.40;;;16.70;99.90;;;;;;5079207;28;20052;-69
2022/07/26 04:33:25;;;;;;;9.25;2.03;;;16.70;99.90;;;;;;5096628;28;20058;-71
2022/07/26 04:35:51;;;;;;;5.63;1.80;;;16.60;99.90;;;;;;5096194;28;20497;-72
2022/07/26 04:38:17;;;;;;;12.80;1.95;;;16.60;99.90;;;;;;5096734;28;20127;-71
2022/07/26 04:40:43;;;;;;;7.03;1.50;;;16.60;99.90;;;;;;5078830;28;20062;-71
2022/07/26 04:43:09;;;;;;;5.95;1.50;;;16.70;99.90;;;;;;5096142;28;20082;-72
2022/07/26 04:45:34;;;;;;;6.55;1.58;;;16.70;99.90;;;;;;5096680;28;20101;-69
2022/07/26 04:48:00;;;;;;;3.17;1.45;;;16.60;99.90;;;;;;5096310;28;20393;-71
2022/07/26 04:50:28;;;;;;;8.48;1.77;;;16.70;99.90;;;;;;5078531;28;20044;-71
2022/07/26 04:52:54;;;;;;;4.90;1.35;;;16.70;99.90;;;;;;5096300;28;20044;-73
2022/07/26 04:55:21;;;;;;;6.80;1.35;;;16.60;99.90;;;;;;5096107;28;20054;-69
2022/07/26 04:57:47;;;;;;;4.93;1.30;;;16.70;99.90;;;;;;5096208;28;20051;-71
2022/07/26 05:00:15;;;;;;;3.60;1.50;;;16.70;99.90;;;;;;5095945;28;20059;-71
2022/07/26 05:02:41;;;;;;;10.25;1.77;;;16.80;99.90;;;;;;5096058;28;20127;-71
2022/07/26 05:05:08;;;;;;;10.57;1.80;;;16.70;99.90;;;;;;5078356;28;20101;-70
2022/07/26 05:07:40;;;;;;;9.27;2.33;;;16.70;99.90;;;;;;5096491;28;20043;-71
2022/07/26 05:10:06;;;;;;;8.25;2.25;;;16.60;99.90;;;;;;5095969;28;20051;-69
2022/07/26 05:12:32;;;;;;;7.18;1.50;;;16.50;99.90;;;;;;5095852;28;20070;-72
2022/07/26 05:14:57;;;;;;;8.88;1.88;;;16.40;99.90;;;;;;5096008;28;20434;-72
2022/07/26 05:17:23;;;;;;;6.22;1.38;;;16.30;99.90;;;;;;5095993;28;20054;-71
2022/07/26 05:19:48;;;;;;;9.68;2.22;;;16.40;99.90;;;;;;5096143;28;20079;-70
2022/07/26 05:22:14;;;;;;;6.32;1.40;;;16.40;99.90;;;;;;5096026;28;20495;-69
2022/07/26 05:24:39;;;;;;;7.50;1.30;;;16.40;99.90;;;;;;5095799;28;20519;-72
2022/07/26 05:27:05;;;;;;;6.28;1.27;;;16.40;99.90;;;;;;5095733;28;20044;-71
2022/07/26 05:29:31;;;;;;;3.58;1.30;;;16.50;99.90;;;;;;5095388;28;20052;-70
2022/07/26 05:31:56;;;;;;;5.88;1.45;;;16.40;99.90;;;;;;5095557;28;20470;-72
2022/07/26 05:34:37;;;;;;;5.30;1.38;;;16.50;99.90;;;;;;5046879;28;20124;-70
2022/07/26 05:37:02;;;;;;;7.28;1.98;;;16.60;99.90;;;;;;5095684;28;20161;-72
2022/07/26 05:39:28;;;;;;;6.90;1.60;;;16.60;99.90;;;;;;5095456;28;20036;-71
2022/07/26 05:41:54;;;;;;;5.80;1.77;;;16.60;99.90;;;;;;5095677;28;20058;-71
2022/07/26 05:44:19;;;;;;;5.78;1.55;;;16.60;99.90;;;;;;5095431;28;20052;-70
2022/07/26 05:46:45;;;;;;;7.65;1.67;;;16.70;99.90;;;;;;5078024;28;20054;-73
2022/07/26 05:49:10;;;;;;;5.93;2.13;;;16.80;99.90;;;;;;5077442;28;20174;-69
2022/07/26 05:51:36;;;;;;;8.05;1.92;;;16.80;99.90;;;;;;5095405;28;20052;-72
2022/07/26 05:54:05;;;;;;;6.20;2.20;;;16.70;99.90;;;;;;5095246;28;20044;-70
2022/07/26 05:56:30;;;;;;;8.60;2.58;;;16.70;99.90;;;;;;5095304;28;20097;-69
2022/07/26 05:58:56;;;;;;;10.23;1.98;;;16.60;99.90;;;;;;5095277;28;20350;-69
2022/07/26 06:01:21;;;;;;;9.43;2.00;;;16.60;99.90;;;;;;5095156;28;20085;-72
2022/07/26 06:03:47;;;;;;;5.85;1.70;;;16.50;99.90;;;;;;5095438;28;20083;-72
2022/07/26 06:06:12;;;;;;;8.40;2.13;;;16.60;99.90;;;;;;5094423;28;20083;-71
2022/07/26 06:08:38;;;;;;;8.48;2.05;;;16.60;99.90;;;;;;5095103;28;20062;-69
2022/07/26 06:11:04;;;;;;;4.35;1.50;;;16.70;99.90;;;;;;5095097;28;20132;-71
2022/07/26 06:13:30;;;;;;;6.55;1.90;;;16.70;99.90;;;;;;5077216;28;20105;-69
2022/07/26 06:15:55;;;;;;;12.80;2.85;;;16.80;99.90;;;;;;5095399;28;20040;-69
2022/07/26 06:18:21;;;;;;;10.68;1.90;;;16.80;99.90;;;;;;5077533;28;20051;-72
2022/07/26 06:20:47;;;;;;;6.13;1.45;;;16.90;99.90;;;;;;5095148;28;20045;-72
2022/07/26 06:23:14;;;;;;;10.20;2.83;;;16.90;99.90;;;;;;5094991;28;20043;-69
2022/07/26 06:25:39;;;;;;;8.70;2.05;;;16.90;99.90;;;;;;5077396;28;20131;-70
2022/07/26 06:28:08;;;;;;;7.88;1.20;;;17.00;99.90;;;;;;5094681;28;20147;-70
2022/07/26 06:30:35;;;;;;;3.03;0.90;;;17.00;99.90;;;;;;5094942;28;20040;-73
2022/07/26 06:33:00;;;;;;;6.75;1.48;;;17.00;99.90;;;;;;5095253;28;20117;-70
2022/07/26 06:35:29;;;;;;;3.70;1.00;;;17.00;99.90;;;;;;5094945;28;20459;-72
2022/07/26 06:37:56;;;;;;;3.78;1.30;;;17.10;99.90;;;;;;5095199;28;20127;-69
2022/07/26 06:40:22;;;;;;;7.85;1.50;;;17.10;99.90;;;;;;5095717;28;20075;-71
2022/07/26 06:42:48;;;;;;;8.38;1.55;;;17.10;99.90;;;;;;5077216;28;20040;-70
2022/07/26 06:45:14;;;;;;;4.82;1.75;;;17.10;99.90;;;;;;5077405;28;20063;-70
2022/07/26 06:47:39;;;;;;;6.45;1.80;;;16.80;99.90;;;;;;5095038;28;20036;-72
2022/07/26 06:50:05;;;;;;;9.80;2.15;;;16.60;99.90;;;;;;5077232;28;20457;-70
2022/07/26 06:52:34;;;;;;;10.50;2.63;;;16.30;99.90;;;;;;5097811;28;20040;-69
2022/07/26 06:55:00;;;;;;;10.15;2.80;;;16.30;99.90;;;;;;5099286;28;20036;-71
2022/07/26 06:57:26;;;;;;;12.15;2.38;;;16.10;99.90;;;;;;5099181;28;20430;-71
2022/07/26 06:59:52;;;;;;;14.43;3.03;;;16.20;99.90;;;;;;5099150;28;20036;-69
2022/07/26 07:02:18;;;;;;;8.50;2.33;;;16.10;99.90;;;;;;5099301;28;20043;-71
2022/07/26 07:04:44;;;;;;;13.32;2.65;;;16.10;99.90;;;;;;5080694;28;20075;-71
2022/07/26 07:07:10;;;;;;;8.27;2.05;;;16.30;99.90;;;;;;5094674;28;20071;-69
2022/07/26 07:09:36;;;;;;;10.30;2.90;;;16.30;99.90;;;;;;5094683;28;20044;-69
2022/07/26 07:12:06;;;;;;;15.38;2.35;;;16.30;99.90;;;;;;5094388;28;20372;-70
2022/07/26 07:14:32;;;;;;;10.77;2.13;;;16.30;99.90;;;;;;5094671;28;20071;-72
2022/07/26 07:16:58;;;;;;;7.70;2.15;;;16.30;99.90;;;;;;5096029;28;20050;-71
2022/07/26 07:19:24;;;;;;;8.27;2.38;;;16.30;99.90;;;;;;5098798;28;20506;-68
2022/07/26 07:21:51;;;;;;;8.38;2.55;;;16.40;99.90;;;;;;5098038;28;20040;-72
2022/07/26 07:24:16;;;;;;;11.00;2.33;;;16.50;99.90;;;;;;5098039;28;20047;-72
2022/07/26 07:26:42;;;;;;;13.85;2.85;;;16.50;99.90;;;;;;5098194;28;20040;-70
2022/07/26 07:29:11;;;;;;;9.50;2.10;;;16.80;99.90;;;;;;5079923;28;20125;-72
2022/07/26 07:31:37;;;;;;;9.75;2.72;;;16.80;99.90;;;;;;5080194;28;20370;-70
2022/07/26 07:34:03;;;;;;;9.40;1.90;;;17.00;99.90;;;;;;5097771;28;20044;-71
2022/07/26 07:36:29;;;;;;;7.97;2.25;;;17.10;99.90;;;;;;5097774;28;20036;-72
2022/07/26 07:38:54;;;;;;;9.57;2.58;;;17.00;99.90;;;;;;5062428;28;20485;-71
2022/07/26 07:41:20;;;;;;;10.82;2.65;;;17.00;99.90;;;;;;5097891;28;20131;-72
2022/07/26 07:43:45;;;;;;;8.25;2.47;;;17.00;99.90;;;;;;5062256;28;20477;-69
2022/07/26 07:46:11;;;;;;;9.48;3.15;;;17.00;99.90;;;;;;5097822;28;20052;-71
2022/07/26 07:48:39;;;;;;;11.65;2.53;;;17.00;99.90;;;;;;5097659;28;20048;-70
2022/07/26 07:51:06;;;;;;;10.98;2.30;;;17.00;99.90;;;;;;5097255;28;20074;-71
2022/07/26 07:53:31;;;;;;;10.23;2.30;;;17.20;99.90;;;;;;5079838;28;20412;-72
2022/07/26 07:55:57;;;;;;;10.02;2.47;;;17.30;99.90;;;;;;5079424;28;20101;-72
2022/07/26 07:58:23;;;;;;;8.90;2.35;;;17.40;99.90;;;;;;5097685;28;20127;-69
2022/07/26 08:00:48;;;;;;;9.30;2.78;;;17.50;99.90;;;;;;5097448;28;20076;-72
2022/07/26 08:03:14;;;;;;;8.48;3.00;;;17.50;99.90;;;;;;5097765;28;20466;-69
2022/07/26 08:05:39;;;;;;;10.25;2.63;;;17.60;99.90;;;;;;5097238;28;20154;-70
2022/07/26 08:08:05;;;;;;;13.95;3.80;;;17.70;99.90;;;;;;5097193;28;20511;-71
2022/07/26 08:10:31;;;;;;;13.75;2.75;;;17.70;99.90;;;;;;5097212;28;20044;-71
2022/07/26 08:12:56;;;;;;;13.05;3.47;;;17.70;99.90;;;;;;5096983;28;20055;-71
2022/07/26 08:15:22;;;;;;;10.93;3.67;;;17.80;99.90;;;;;;5097193;28;20044;-71
2022/07/26 08:17:49;;;;;;;16.63;4.30;;;17.70;99.90;;;;;;5079046;28;20051;-70
2022/07/26 08:20:14;;;;;;;15.75;3.92;;;17.60;99.90;;;;;;5097001;28;20035;-70
2022/07/26 08:22:41;;;;;;;13.98;3.80;;;17.50;99.90;;;;;;5097069;28;20047;-72
2022/07/26 08:25:07;;;;;;;19.92;4.30;;;17.20;99.90;;;;;;5062141;28;20075;-70
2022/07/26 08:27:33;;;;;;;17.95;4.72;;;17.00;99.90;;;;;;5096903;28;20123;-70
2022/07/26 08:29:58;;;;;;;14.82;3.63;;;16.90;99.90;;;;;;5096011;28;20495;-69
2022/07/26 08:32:24;;;;;;;14.63;4.00;;;16.90;99.90;;;;;;5096743;28;20389;-69
2022/07/26 08:34:49;;;;;;;18.05;4.05;;;16.90;99.90;;;;;;5096463;28;20044;-71
2022/07/26 08:37:15;;;;;;;17.85;4.72;;;16.90;99.90;;;;;;5096709;28;20069;-72
2022/07/26 08:39:40;;;;;;;15.63;3.70;;;17.00;99.90;;;;;;5078821;28;20044;-69
2022/07/26 08:42:17;;;;;;;17.60;3.97;;;16.90;99.90;;;;;;5096838;28;20047;-72
2022/07/26 08:44:44;;;;;;;15.82;3.92;;;17.00;99.90;;;;;;5096565;28;20090;-70
2022/07/26 08:47:14;;;;;;;16.70;3.53;;;17.10;99.90;;;;;;5096401;28;20044;-72
2022/07/26 08:49:41;;;;;;;16.23;4.20;;;17.10;99.90;;;;;;5096302;28;20142;-72
2022/07/26 08:52:07;;;;;;;12.55;4.00;;;17.20;99.90;;;;;;5096259;28;20044;-70
2022/07/26 08:54:33;;;;;;;9.95;3.30;;;17.10;99.90;;;;;;5096402;28;20480;-72
2022/07/26 08:56:59;;;;;;;13.80;3.47;;;17.00;99.90;;;;;;5096376;28;20047;-71
2022/07/26 08:59:25;;;;;;;19.13;3.42;;;16.90;99.90;;;;;;5096350;28;20048;-70
2022/07/26 09:02:03;;;;;;;14.43;3.47;;;17.00;99.90;;;;;;5095999;28;20039;-69
2022/07/26 09:04:37;;;;;;;15.48;3.33;;;17.00;99.90;;;;;;5096095;28;20086;-71
2022/07/26 09:07:16;;;;;;;14.63;3.05;;;17.00;99.90;;;;;;5096036;28;20454;-70
2022/07/26 09:10:04;;;;;;;8.75;2.70;;;17.20;99.90;;;;;;5096137;28;20094;-70
2022/07/26 09:12:31;;;;;;;15.80;4.35;;;17.30;99.90;;;;;;5096041;28;20385;-72
2022/07/26 09:14:58;;;;;;;15.20;3.88;;;17.40;99.90;;;;;;5095931;28;20037;-70
2022/07/26 09:17:36;;;;;;;13.77;3.15;;;17.50;99.90;;;;;;5096065;28;20051;-70
2022/07/26 09:20:08;;;;;;;10.25;3.22;;;17.60;99.90;;;;;;5096028;28;20063;-69
2022/07/26 09:22:35;;;;;;;11.38;2.97;;;17.70;99.90;;;;;;5078301;28;20063;-72
2022/07/26 09:25:01;;;;;;;9.52;2.72;;;17.80;99.90;;;;;;5095603;28;20100;-70
2022/07/26 09:27:37;;;;;;;13.52;2.60;;;17.90;99.90;;;;;;5095818;28;20071;-71
2022/07/26 09:30:07;;;;;;;15.85;4.15;;;18.00;99.90;;;;;;5095394;28;20055;-72
2022/07/26 09:32:32;;;;;;;13.63;2.92;;;18.00;99.90;;;;;;5095827;28;20189;-69
2022/07/26 09:35:20;;;;;;;15.35;3.00;;;18.10;99.90;;;;;;5095593;28;20079;-73
2022/07/26 09:37:47;;;;;;;9.60;2.45;;;18.10;99.90;;;;;;5095556;28;20108;-69
2022/07/26 09:40:16;;;;;;;11.73;2.33;;;18.20;99.90;;;;;;5095566;28;20039;-70
2022/07/26 09:43:02;;;;;;;12.65;2.42;;;18.10;99.90;;;;;;5095559;28;20404;-71
2022/07/26 09:45:29;;;;;;;10.23;3.28;;;18.00;99.90;;;;;;5077988;28;20075;-70
2022/07/26 09:47:55;;;;;;;8.35;2.53;;;18.20;99.90;;;;;;5095404;28;20052;-70
2022/07/26 09:50:32;;;;;;;9.45;2.25;;;18.30;99.90;;;;;;5095398;28;20451;-71
2022/07/26 09:53:08;;;;;;;10.13;2.53;;;18.20;99.90;;;;;;5095329;28;20071;-71
2022/07/26 09:55:36;;;;;;;7.68;2.67;;;18.40;99.90;;;;;;5095546;28;20052;-70
2022/07/26 09:58:05;;;;;;;6.55;2.17;;;18.50;99.90;;;;;;5095276;28;20051;-72
2022/07/26 10:00:32;;;;;;;11.45;2.88;;;18.70;99.90;;;;;;5095297;28;20051;-70
2022/07/26 10:02:58;;;;;;;10.10;2.25;;;18.80;99.90;;;;;;5095415;28;20063;-71
2022/07/26 10:05:23;;;;;;;8.65;2.28;;;18.80;99.90;;;;;;5095509;28;20342;-71
2022/07/26 10:07:50;;;;;;;8.77;2.33;;;19.00;99.90;;;;;;5095196;28;20051;-70
2022/07/26 10:10:33;;;;;;;7.32;2.30;;;18.80;99.90;;;;;;5095433;28;20135;-70
2022/07/26 10:13:02;;;;;;;12.60;3.40;;;19.00;99.90;;;;;;5095766;28;20056;-71
2022/07/26 10:15:34;;;;;;;7.35;2.00;;;18.80;99.90;;;;;;5096027;28;20362;-69
2022/07/26 10:18:00;;;;;;;6.55;2.15;;;19.00;99.90;;;;;;5096301;28;20055;-70
2022/07/26 10:20:42;;;;;;;5.05;1.90;;;18.80;99.90;;;;;;5096281;28;20036;-70
2022/07/26 10:23:33;;;;;;;9.27;2.60;;;18.80;99.90;;;;;;5096427;28;20097;-71
2022/07/26 10:26:00;;;;;;;6.53;2.47;;;19.00;99.90;;;;;;5095626;28;20075;-71
2022/07/26 10:28:28;;;;;;;10.65;2.72;;;19.20;99.90;;;;;;5094981;28;20048;-70
2022/07/26 10:31:19;;;;;;;7.03;2.33;;;19.40;99.90;;;;;;5095032;28;20083;-70
2022/07/26 10:33:48;;;;;;;6.90;2.40;;;19.50;99.90;;;;;;5081427;28;20067;-73
2022/07/26 10:36:37;;;;;;;12.02;3.03;;;19.20;99.90;;;;;;5094934;28;20127;-73
2022/07/26 10:39:05;;;;;;;8.02;2.22;;;19.40;99.90;;;;;;5094966;28;20052;-70
2022/07/26 10:41:38;;;;;;;8.45;2.42;;;19.60;99.90;;;;;;5094978;28;20126;-73
2022/07/26 10:44:15;;;;;;;5.47;2.05;;;19.70;99.90;;;;;;5095066;28;20062;-70
2022/07/26 10:47:13;;;;;;;12.40;2.50;;;19.60;99.90;;;;;;5094738;28;20454;-72
2022/07/26 10:49:39;;;;;;;7.93;2.45;;;19.80;99.90;;;;;;5094916;28;20056;-70
2022/07/26 10:52:22;;;;;;;9.32;2.70;;;20.00;99.90;;;;;;5095814;28;20040;-73
2022/07/26 10:55:02;;;;;;;4.88;2.13;;;19.90;99.60;;;;;;5098494;28;20442;-71
2022/07/26 10:57:41;;;;;;;10.90;2.10;;;19.80;99.90;;;;;;5098474;28;20529;-72
2022/07/26 11:00:12;;;;;;;9.95;2.40;;;19.60;99.50;;;;;;5098737;28;20061;-71
2022/07/26 11:02:37;;;;;;;6.35;2.25;;;19.60;99.90;;;;;;5098475;28;20059;-72
2022/07/26 11:05:12;;;;;;;7.90;2.35;;;19.50;99.90;;;;;;5098481;28;20056;-70
2022/07/26 11:07:51;;;;;;;;;;;19.20;99.90;;;;;;5081025;28;20055;-69
2022/07/26 11:10:26;;;;;;;9.13;2.20;;;19.40;99.90;;;;;;5098334;28;19971;-71
2022/07/26 11:13:22;;;;;;;9.70;2.72;;;19.50;99.90;;;;;;5098421;28;20044;-74
2022/07/26 11:15:50;;;;;;;12.40;3.03;;;19.80;99.90;;;;;;5096887;28;20063;-71
2022/07/26 11:18:21;;;;;;;9.65;2.90;;;19.50;99.90;;;;;;5098274;28;20052;-71
2022/07/26 11:20:50;;;;;;;7.95;2.10;;;19.50;99.90;;;;;;5080490;28;20048;-73
2022/07/26 11:23:26;;;;;;;8.73;2.38;;;19.60;99.90;;;;;;5098179;28;20513;-69
2022/07/26 11:26:22;;;;;;;13.82;2.42;;;19.80;99.90;;;;;;5097835;28;20090;-74
2022/07/26 11:28:55;;;;;;;8.85;2.42;;;20.00;99.90;;;;;;5096323;28;20151;-71
2022/07/26 11:31:25;;;;;;;9.38;2.05;;;20.10;99.90;;;;;;5098056;28;20404;-71
2022/07/26 11:33:52;;;;;;;7.22;2.38;;;20.10;99.90;;;;;;5098050;28;20452;-73
2022/07/26 11:36:51;;;;;;;8.73;2.65;;;20.30;99.90;;;;;;5097807;28;20040;-70
2022/07/26 11:39:29;;;;;;;6.63;2.17;;;20.50;99.90;;;;;;5042730;28;20056;-72
2022/07/26 11:42:07;;;;;;;8.98;1.98;;;20.50;99.80;;;;;;5080057;28;20126;-73
2022/07/26 11:44:33;;;;;;;11.23;2.30;;;20.50;99.90;;;;;;5097672;28;20051;-70
2022/07/26 11:47:08;;;;;;;10.02;2.67;;;20.10;99.90;;;;;;5079919;28;20122;-70
2022/07/26 11:49:34;;;;;;;6.57;2.03;;;19.80;99.90;;;;;;5098164;28;20048;-71
2022/07/26 11:52:01;;;;;;;8.93;1.80;;;20.20;99.90;;;;;;5097688;28;20109;-71
2022/07/26 11:54:47;;;;;;;6.60;2.03;;;20.20;99.90;;;;;;5097668;28;20075;-70
2022/07/26 11:57:13;;;;;;;5.35;1.90;;;20.20;99.90;;;;;;5097501;28;20079;-70
2022/07/26 11:59:39;;;;;;;5.88;1.92;;;19.80;99.90;;;;;;5097442;28;20043;-70
2022/07/26 12:02:07;;;;;;;5.55;2.28;;;19.50;99.80;;;;;;5097383;28;20048;-71
2022/07/26 12:04:38;;;;;;;6.93;2.20;;;19.90;99.90;;;;;;5096291;28;20048;-72
2022/07/26 12:07:13;;;;;;;8.23;2.47;;;19.90;99.90;;;;;;5079291;28;20482;-71
2022/07/26 12:09:46;;;;;;;8.52;1.95;;;19.50;99.10;;;;;;5062793;28;20044;-70
2022/07/26 12:12:18;;;;;;;6.82;2.13;;;20.30;99.30;;;;;;5097104;28;20048;-70
2022/07/26 12:15:04;;;;;;;6.07;2.20;;;20.30;99.40;;;;;;5079617;28;20378;-73
2022/07/26 12:17:30;;;;;;;6.43;2.15;;;20.20;99.30;;;;;;5079422;28;20106;-72
2022/07/26 12:20:13;;;;;;;5.80;1.90;;;20.20;99.00;;;;;;5062405;28;20056;-72
2022/07/26 12:22:39;;;;;;;5.72;1.95;;;20.30;98.60;;;;;;5097069;28;20047;-71
2022/07/26 12:25:05;;;;;;;8.75;2.30;;;20.50;98.30;;;;;;5096918;28;20462;-73
2022/07/26 12:27:32;;;;;;;8.30;2.00;;;20.40;98.50;;;;;;5097088;28;20055;-70
2022/07/26 12:30:01;;;;;;;6.93;2.33;;;20.60;98.70;;;;;;5096733;28;20059;-73
2022/07/26 12:32:35;;;;;;;10.32;1.98;;;20.70;97.80;;;;;;5096703;28;20113;-69
2022/07/26 12:35:04;;;;;;;;;;;20.60;98.20;;;;;;5097261;28;20350;-70
2022/07/26 12:37:33;;;;;;;7.60;2.95;;;20.10;98.30;;;;;;5096581;28;20361;-73
2022/07/26 12:40:12;;;;;;;7.25;2.30;;;19.70;97.90;;;;;;5079350;28;20044;-72
2022/07/26 12:42:41;;;;;;;6.43;1.92;;;20.10;98.20;;;;;;5096496;28;20044;-71
2022/07/26 12:45:09;;;;;;;7.10;2.20;;;20.10;97.80;;;;;;5096451;28;20047;-72
2022/07/26 12:47:37;;;;;;;6.57;1.85;;;20.40;97.80;;;;;;5096554;28;20425;-71
2022/07/26 12:50:05;;;;;;;8.38;2.63;;;20.60;96.40;;;;;;5096607;28;20044;-73
2022/07/26 12:52:32;;;;;;;7.95;2.20;;;20.60;96.70;;;;;;5096366;28;20131;-74